createdAt,value
2022-10-06T00:01:09.879Z,67.90
2022-10-06T00:03:38.481Z,68.80
2022-10-06T00:06:08.085Z,72.30
2022-10-06T00:08:37.920Z,74.00
2022-10-06T00:11:06.459Z,75.10
2022-10-06T00:13:34.876Z,74.50
2022-10-06T00:16:03.174Z,74.80
2022-10-06T00:18:32.628Z,72.50
2022-10-06T00:21:04.140Z,68.20
2022-10-06T00:23:32.373Z,68.60
2022-10-06T00:26:00.366Z,68.50
2022-10-06T00:28:28.826Z,69.80
2022-10-06T00:30:57.108Z,71.30
2022-10-06T00:33:25.064Z,72.20
2022-10-06T00:36:00.813Z,73.20
2022-10-06T00:38:29.662Z,74.70
2022-10-06T00:40:58.101Z,75.00
2022-10-06T00:43:42.796Z,75.00
2022-10-06T00:46:14.513Z,75.50
2022-10-06T00:48:42.765Z,71.50
2022-10-06T00:51:12.064Z,69.40
2022-10-06T00:53:40.172Z,70.10
2022-10-06T00:56:08.158Z,70.30
2022-10-06T00:58:36.068Z,73.50
2022-10-06T01:01:04.728Z,74.10
2022-10-06T01:03:36.202Z,74.00
2022-10-06T01:06:05.075Z,73.40
2022-10-06T01:08:35.050Z,71.00
2022-10-06T01:11:03.053Z,70.70
2022-10-06T01:13:31.588Z,69.60
2022-10-06T01:16:14.638Z,68.40
2022-10-06T01:18:43.732Z,68.50
2022-10-06T01:21:19.169Z,70.60
2022-10-06T01:23:49.845Z,70.90
2022-10-06T01:26:19.404Z,69.10
2022-10-06T01:28:48.363Z,71.20
2022-10-06T01:31:16.838Z,72.60
2022-10-06T01:33:44.791Z,71.50
2022-10-06T01:36:12.647Z,70.30
2022-10-06T01:38:40.516Z,68.30
2022-10-06T01:41:09.750Z,69.20
2022-10-06T01:43:37.634Z,70.00
2022-10-06T01:46:05.712Z,70.80
2022-10-06T01:48:36.673Z,68.00
2022-10-06T01:51:04.620Z,68.60
2022-10-06T01:53:32.477Z,68.40
2022-10-06T01:56:00.994Z,69.90
2022-10-06T01:58:30.608Z,72.40
2022-10-06T02:00:58.714Z,74.80
2022-10-06T02:03:26.664Z,76.00
2022-10-06T02:05:57.293Z,76.70
2022-10-06T02:08:25.413Z,76.50
2022-10-06T02:10:53.564Z,74.60
2022-10-06T02:13:24.561Z,73.60
2022-10-06T02:15:56.938Z,73.30
2022-10-06T02:18:25.363Z,74.40
2022-10-06T02:20:53.459Z,75.00
2022-10-06T02:23:21.310Z,74.60
2022-10-06T02:25:49.209Z,74.30
2022-10-06T02:28:17.242Z,74.70
2022-10-06T02:30:45.847Z,74.40
2022-10-06T02:33:15.095Z,73.90
2022-10-06T02:35:43.953Z,74.60
2022-10-06T02:38:12.773Z,75.50
2022-10-06T02:40:40.684Z,76.70
2022-10-06T02:43:08.578Z,76.30
2022-10-06T02:45:37.355Z,75.00
2022-10-06T02:48:05.445Z,75.10
2022-10-06T02:50:34.838Z,74.90
2022-10-06T02:53:02.705Z,75.20
2022-10-06T02:55:31.224Z,75.10
2022-10-06T02:57:59.114Z,74.90
2022-10-06T03:00:27.180Z,75.50
2022-10-06T03:02:55.117Z,75.70
2022-10-06T03:05:23.075Z,76.40
2022-10-06T03:07:52.300Z,76.10
2022-10-06T03:10:20.218Z,77.00
2022-10-06T03:12:48.056Z,76.70
2022-10-06T03:15:16.113Z,77.10
2022-10-06T03:17:43.953Z,77.60
2022-10-06T03:20:11.793Z,78.10
2022-10-06T03:22:39.646Z,78.20
2022-10-06T03:25:10.032Z,78.30
2022-10-06T03:27:37.919Z,78.80
2022-10-06T03:30:06.758Z,78.10
2022-10-06T03:32:34.852Z,78.20
2022-10-06T03:35:03.300Z,78.90
2022-10-06T03:37:31.704Z,79.40
2022-10-06T03:40:00.258Z,79.40
2022-10-06T03:42:29.523Z,80.40
2022-10-06T03:44:57.509Z,80.40
2022-10-06T03:47:25.469Z,81.10
2022-10-06T03:49:53.391Z,80.60
2022-10-06T03:52:25.729Z,81.10
2022-10-06T03:54:53.997Z,81.70
2022-10-06T03:57:21.934Z,81.80
2022-10-06T03:59:51.232Z,82.20
2022-10-06T04:02:19.252Z,83.70
2022-10-06T04:04:47.246Z,84.20
2022-10-06T04:07:15.209Z,84.20
2022-10-06T04:09:43.173Z,84.70
2022-10-06T04:12:11.085Z,84.80
2022-10-06T04:14:39.063Z,84.50
2022-10-06T04:17:08.426Z,86.20
2022-10-06T04:19:36.388Z,85.70
2022-10-06T04:22:04.356Z,85.80
2022-10-06T04:24:32.263Z,85.60
2022-10-06T04:27:20.882Z,85.50
2022-10-06T04:29:48.731Z,85.20
2022-10-06T04:32:18.013Z,84.70
2022-10-06T04:34:45.947Z,84.10
2022-10-06T04:37:13.905Z,83.60
2022-10-06T04:39:41.847Z,83.20
2022-10-06T04:42:09.800Z,82.70
2022-10-06T04:44:37.727Z,82.60
2022-10-06T04:47:05.736Z,81.90
2022-10-06T04:49:35.068Z,81.60
2022-10-06T04:52:02.981Z,80.40
2022-10-06T04:54:33.676Z,79.00
2022-10-06T04:57:02.023Z,78.90
2022-10-06T04:59:43.869Z,77.40
2022-10-06T05:02:11.934Z,77.10
2022-10-06T05:04:41.349Z,77.00
2022-10-06T05:07:09.289Z,77.00
2022-10-06T05:09:37.245Z,76.80
2022-10-06T05:12:06.061Z,77.10
2022-10-06T07:31:52.301Z,54.20
2022-10-06T07:34:20.174Z,52.30
2022-10-06T07:36:53.892Z,50.80
2022-10-06T07:39:21.983Z,50.00
2022-10-06T07:41:49.899Z,48.20
2022-10-06T07:44:17.777Z,47.90
2022-10-06T07:46:45.655Z,47.80
2022-10-06T07:49:17.514Z,44.60
2022-10-06T07:51:45.626Z,44.70
2022-10-06T07:54:13.494Z,44.00
2022-10-06T07:56:41.495Z,44.70
2022-10-06T07:59:09.356Z,43.90
2022-10-06T08:01:37.263Z,41.60
2022-10-06T08:04:06.737Z,40.60
2022-10-06T08:06:36.543Z,38.40
2022-10-06T08:09:04.587Z,39.00
2022-10-06T08:11:34.407Z,40.30
2022-10-06T08:14:02.387Z,41.80
2022-10-06T08:16:31.010Z,41.40
2022-10-06T08:19:00.194Z,41.90
2022-10-06T08:21:29.720Z,41.60
2022-10-06T08:24:00.082Z,40.70
2022-10-06T08:26:29.071Z,39.80
2022-10-06T08:29:03.051Z,39.20
2022-10-06T08:31:32.475Z,41.10
2022-10-06T08:34:01.421Z,42.40
2022-10-06T08:36:31.905Z,41.90
2022-10-06T08:39:02.224Z,39.80
2022-10-06T08:41:43.173Z,38.30
2022-10-06T08:44:22.607Z,38.50
2022-10-06T08:46:56.507Z,38.80
2022-10-06T08:49:27.510Z,37.20
2022-10-06T08:52:03.469Z,34.40
2022-10-06T08:54:41.513Z,36.00
2022-10-06T08:57:16.650Z,36.80
2022-10-06T08:59:47.951Z,36.10
2022-10-06T09:02:28.564Z,34.20
2022-10-06T09:04:58.223Z,32.50
2022-10-06T09:07:33.020Z,34.80
2022-10-06T09:10:21.265Z,32.30
2022-10-06T09:12:55.076Z,32.70
2022-10-06T09:15:31.454Z,32.80
2022-10-06T09:18:07.246Z,32.40
2022-10-06T09:20:40.035Z,31.80
2022-10-06T09:23:15.340Z,30.20
2022-10-06T09:25:44.957Z,32.80
2022-10-06T09:28:16.173Z,33.50
2022-10-06T09:30:44.565Z,31.50
2022-10-06T09:33:21.787Z,31.30
2022-10-06T09:36:09.038Z,31.30
2022-10-06T09:38:53.959Z,31.30
2022-10-06T09:41:27.954Z,29.40
2022-10-06T09:43:58.568Z,30.00
2022-10-06T09:46:32.372Z,29.50
2022-10-06T09:49:18.561Z,30.00
2022-10-06T09:52:10.090Z,29.40
2022-10-06T09:54:38.793Z,30.00
2022-10-06T09:57:16.744Z,29.60
2022-10-06T09:59:46.922Z,30.40
2022-10-06T10:02:29.915Z,30.80
2022-10-06T10:04:59.116Z,29.80
2022-10-06T10:07:28.695Z,28.40
2022-10-06T10:10:19.191Z,29.00
2022-10-06T10:12:52.408Z,28.80
2022-10-06T10:15:31.234Z,27.50
2022-10-06T10:18:03.135Z,29.00
2022-10-06T10:20:38.198Z,30.00
2022-10-06T10:23:19.735Z,28.80
2022-10-06T10:25:59.772Z,28.40
2022-10-06T10:28:54.246Z,29.30
2022-10-06T10:31:31.170Z,29.90
2022-10-06T10:34:23.856Z,30.10
2022-10-06T10:36:58.511Z,30.50
2022-10-06T10:39:36.856Z,29.10
2022-10-06T10:42:10.974Z,27.50
2022-10-06T10:44:49.314Z,28.20
2022-10-06T10:47:25.579Z,29.90
2022-10-06T10:50:01.198Z,28.70
2022-10-06T10:52:33.065Z,26.50
2022-10-06T10:55:17.883Z,26.70
2022-10-06T10:57:47.420Z,27.00
2022-10-06T11:00:20.771Z,25.80
2022-10-06T11:02:48.841Z,27.10
2022-10-06T11:05:28.220Z,27.60
2022-10-06T11:08:03.131Z,29.90
2022-10-06T11:10:35.225Z,27.60
2022-10-06T11:13:15.822Z,27.50
2022-10-06T11:16:00.075Z,27.70
2022-10-06T11:18:41.492Z,26.80
2022-10-06T11:21:14.196Z,26.00
2022-10-06T11:23:50.942Z,26.80
2022-10-06T11:26:40.890Z,27.60
2022-10-06T11:29:20.471Z,26.80
2022-10-06T11:31:58.278Z,26.60
2022-10-06T11:34:26.249Z,27.30
2022-10-06T11:37:02.007Z,28.00
2022-10-06T11:39:37.211Z,28.50
2022-10-06T11:42:14.201Z,28.40
2022-10-06T11:44:45.600Z,28.30
2022-10-06T11:47:34.338Z,27.80
2022-10-06T11:50:03.181Z,27.30
2022-10-06T11:52:55.924Z,28.00
2022-10-06T11:55:26.493Z,27.50
2022-10-06T12:01:07.299Z,28.10
2022-10-06T12:03:47.280Z,28.60
2022-10-06T12:06:53.559Z,28.90
2022-10-06T12:09:52.286Z,27.60
2022-10-06T12:13:05.804Z,26.90
2022-10-06T12:18:51.120Z,27.40
2022-10-06T12:21:43.214Z,27.50
2022-10-06T12:24:31.618Z,28.00
2022-10-06T12:27:22.090Z,28.60
2022-10-06T12:30:01.169Z,28.10
2022-10-06T12:32:46.353Z,26.00
2022-10-06T12:35:26.123Z,27.00
2022-10-06T12:37:55.196Z,26.90
2022-10-06T12:40:55.611Z,27.20
2022-10-06T12:43:58.410Z,28.20
2022-10-06T12:46:41.570Z,26.80
2022-10-06T12:49:37.031Z,25.40
2022-10-06T12:52:18.726Z,27.00
2022-10-06T12:54:57.085Z,28.10
2022-10-06T12:57:30.611Z,26.80
2022-10-06T12:59:58.833Z,27.00
2022-10-06T13:02:28.498Z,26.80
2022-10-06T13:05:00.369Z,26.10
2022-10-06T13:07:31.863Z,27.20
2022-10-06T13:10:18.203Z,26.40
2022-10-06T13:12:47.585Z,26.70
2022-10-06T13:15:22.181Z,26.30
2022-10-06T13:17:53.130Z,26.90
2022-10-06T13:20:32.186Z,26.70
2022-10-06T13:23:03.294Z,26.80
2022-10-06T13:25:36.570Z,26.10
2022-10-06T13:28:04.535Z,26.50
2022-10-06T13:30:37.726Z,26.80
2022-10-06T13:33:09.032Z,27.70
2022-10-06T13:35:37.471Z,25.80
2022-10-06T13:38:06.776Z,26.40
2022-10-06T13:40:50.383Z,25.90
2022-10-06T13:43:20.236Z,26.60
2022-10-06T13:45:49.412Z,27.10
2022-10-06T13:48:19.991Z,26.10
2022-10-06T13:50:49.397Z,27.80
2022-10-06T13:53:27.935Z,27.70
2022-10-06T13:55:56.160Z,27.00
2022-10-06T13:58:27.837Z,27.40
2022-10-06T14:00:57.847Z,26.90
2022-10-06T14:03:28.719Z,26.30
2022-10-06T14:06:07.962Z,26.50
2022-10-06T14:08:38.172Z,27.70
2022-10-06T14:11:08.242Z,26.50
2022-10-06T14:13:43.997Z,26.30
2022-10-06T14:16:20.870Z,26.20
2022-10-06T14:21:41.628Z,26.40
2022-10-06T14:24:26.106Z,25.50
2022-10-06T14:26:54.893Z,27.00
2022-10-06T14:29:25.149Z,27.00
2022-10-06T14:31:53.055Z,26.60
2022-10-06T14:34:22.848Z,27.20
2022-10-06T14:36:52.295Z,27.10
2022-10-06T14:39:20.476Z,27.20
2022-10-06T14:41:50.152Z,27.10
2022-10-06T14:44:18.070Z,26.40
2022-10-06T14:46:49.364Z,26.90
2022-10-06T14:49:18.089Z,26.80
2022-10-06T14:51:46.975Z,27.90
2022-10-06T14:54:15.323Z,28.20
2022-10-06T14:56:44.030Z,27.40
2022-10-06T14:59:17.078Z,27.60
2022-10-06T15:01:45.749Z,27.90
2022-10-06T15:04:15.747Z,28.70
2022-10-06T15:07:01.433Z,29.40
2022-10-06T15:09:31.286Z,30.10
2022-10-06T15:12:00.119Z,29.60
2022-10-06T15:14:29.824Z,29.30
2022-10-06T15:17:00.138Z,29.60
2022-10-06T15:19:28.149Z,30.40
2022-10-06T15:21:56.184Z,29.70
2022-10-06T15:24:24.075Z,30.30
2022-10-06T15:27:09.286Z,30.40
2022-10-06T15:29:38.514Z,30.00
2022-10-06T15:32:07.236Z,30.30
2022-10-06T15:34:37.496Z,31.60
2022-10-06T15:37:06.297Z,31.50
2022-10-06T15:39:37.743Z,32.20
2022-10-06T15:42:06.460Z,32.30
2022-10-06T15:44:35.275Z,32.10
2022-10-06T15:47:06.017Z,31.10
2022-10-06T15:49:38.197Z,31.50
2022-10-06T15:52:06.824Z,32.70
2022-10-06T15:54:37.889Z,32.30
2022-10-06T15:57:08.422Z,32.50
2022-10-06T15:59:36.721Z,32.40
2022-10-06T16:02:09.849Z,33.80
2022-10-06T16:04:55.153Z,35.40
2022-10-06T16:07:23.096Z,37.70
2022-10-06T16:09:52.446Z,38.00
2022-10-06T16:12:22.743Z,39.00
2022-10-06T16:14:50.630Z,40.00
2022-10-06T16:17:20.191Z,40.20
2022-10-06T16:19:48.279Z,41.60
2022-10-06T16:22:18.513Z,42.90
2022-10-06T16:24:46.597Z,44.20
2022-10-06T16:27:15.720Z,44.10
2022-10-06T16:29:43.699Z,44.70
2022-10-06T16:32:11.581Z,45.40
2022-10-06T16:34:40.884Z,45.90
2022-10-06T16:37:08.804Z,46.00
2022-10-06T16:39:36.714Z,46.50
2022-10-06T16:42:04.967Z,47.30
2022-10-06T16:44:32.877Z,47.50
2022-10-06T16:47:00.866Z,47.50
2022-10-06T16:49:28.811Z,47.70
2022-10-06T16:51:58.097Z,48.70
2022-10-06T16:54:26.990Z,48.40
2022-10-06T16:56:55.344Z,50.00
2022-10-06T16:59:25.825Z,51.30
2022-10-06T17:01:54.079Z,51.40
2022-10-06T17:04:23.669Z,51.50
2022-10-06T17:06:53.050Z,51.10
2022-10-06T17:09:23.779Z,50.10
2022-10-06T17:11:53.049Z,50.40
2022-10-06T17:21:59.421Z,52.30
2022-10-06T17:24:31.226Z,52.00
2022-10-06T17:26:59.502Z,52.40
2022-10-06T17:29:27.701Z,53.50
2022-10-06T17:31:58.762Z,52.60
2022-10-06T17:34:32.427Z,51.80
2022-10-06T17:37:02.746Z,52.50
2022-10-06T17:39:32.165Z,54.10
2022-10-06T17:42:00.083Z,52.50
2022-10-06T17:44:29.136Z,53.30
2022-10-06T17:46:59.077Z,53.40
2022-10-06T17:49:28.012Z,53.20
2022-10-06T17:51:56.524Z,52.80
2022-10-06T17:54:27.125Z,53.20
2022-10-06T17:56:59.116Z,53.20
2022-10-06T17:59:30.281Z,53.80
2022-10-06T18:02:00.530Z,53.50
2022-10-06T18:04:28.833Z,53.00
2022-10-06T18:06:57.010Z,52.70
2022-10-06T18:09:25.132Z,52.50
2022-10-06T18:11:55.965Z,52.00
2022-10-06T18:14:27.187Z,51.80
2022-10-06T18:16:57.593Z,52.10
2022-10-06T18:19:29.752Z,52.10
2022-10-06T18:22:00.011Z,51.90
2022-10-06T18:24:30.144Z,52.40
2022-10-06T18:26:59.801Z,52.30
2022-10-06T18:29:30.655Z,52.00
2022-10-06T18:32:09.455Z,52.30
2022-10-06T18:37:34.836Z,53.60
2022-10-06T18:40:06.127Z,53.00
2022-10-06T18:42:34.219Z,53.00
2022-10-06T18:45:20.880Z,53.00
2022-10-06T18:48:06.409Z,53.40
2022-10-06T18:50:35.008Z,54.60
2022-10-06T18:53:04.565Z,54.90
2022-10-06T18:55:32.577Z,54.60
2022-10-06T18:58:00.455Z,54.10
2022-10-06T19:00:29.706Z,54.60
2022-10-06T19:02:57.555Z,54.00
2022-10-06T19:05:25.840Z,52.80
2022-10-06T19:07:54.671Z,53.70
2022-10-06T19:10:22.962Z,53.90
2022-10-06T19:12:50.883Z,55.30
2022-10-06T19:15:21.143Z,54.90
2022-10-06T19:17:51.046Z,52.90
2022-10-06T19:20:19.370Z,54.80
2022-10-06T19:22:48.328Z,54.90
2022-10-06T19:25:18.685Z,54.90
2022-10-06T19:27:47.004Z,54.90
2022-10-06T19:30:15.795Z,55.50
2022-10-06T19:32:43.763Z,54.40
2022-10-06T19:35:13.231Z,55.70
2022-10-06T19:37:41.522Z,55.50
2022-10-06T19:40:11.361Z,55.60
2022-10-06T19:42:47.358Z,55.60
2022-10-06T19:45:16.470Z,55.90
2022-10-06T19:47:45.251Z,55.20
2022-10-06T19:50:16.244Z,54.70
2022-10-06T19:52:44.170Z,54.90
2022-10-06T19:55:12.005Z,54.90
2022-10-06T19:57:40.068Z,54.70
2022-10-06T20:00:10.155Z,55.70
2022-10-06T20:02:42.176Z,55.80
2022-10-06T20:05:11.909Z,56.20
2022-10-06T20:07:41.619Z,57.70
2022-10-06T20:10:09.811Z,55.50
2022-10-06T20:12:38.366Z,56.10
2022-10-06T20:15:07.293Z,55.40
2022-10-06T20:17:35.717Z,55.60
2022-10-06T20:20:04.368Z,55.40
2022-10-06T20:22:32.583Z,54.70
2022-10-06T20:25:02.396Z,55.30
2022-10-06T20:27:30.368Z,55.90
2022-10-06T20:29:58.863Z,55.20
2022-10-06T20:32:27.338Z,56.00
2022-10-06T20:34:55.260Z,55.70
2022-10-06T20:37:23.170Z,56.20
2022-10-06T20:40:08.538Z,56.30
2022-10-06T20:42:37.763Z,56.30
2022-10-06T20:45:07.071Z,55.70
2022-10-06T20:47:34.935Z,57.10
2022-10-06T20:50:02.944Z,56.90
2022-10-06T20:52:31.633Z,56.30
2022-10-06T20:54:59.546Z,56.00
2022-10-06T20:57:33.628Z,56.60
2022-10-06T21:00:27.292Z,55.00
2022-10-06T21:02:56.403Z,55.40
2022-10-06T21:05:24.526Z,55.50
2022-10-06T21:07:52.547Z,56.50
2022-10-06T21:10:20.628Z,56.50
2022-10-06T21:12:48.604Z,57.10
2022-10-06T21:15:16.673Z,57.30
2022-10-06T21:17:46.632Z,56.30
2022-10-06T21:20:15.033Z,57.50
2022-10-06T21:22:43.140Z,56.00
2022-10-06T21:25:11.127Z,55.60
2022-10-06T21:27:40.318Z,54.40
2022-10-06T21:30:10.246Z,56.20
2022-10-06T21:32:38.348Z,57.50
2022-10-06T21:35:09.380Z,57.50
2022-10-06T21:37:37.414Z,57.90
2022-10-06T21:40:06.195Z,55.80
2022-10-06T21:42:34.234Z,57.90
2022-10-06T21:45:02.380Z,57.70
2022-10-06T21:47:30.460Z,56.50
2022-10-06T21:49:58.484Z,55.40
2022-10-06T21:52:28.452Z,53.40
2022-10-06T21:54:56.463Z,55.90
2022-10-06T21:57:24.579Z,56.70
2022-10-06T21:59:52.627Z,54.70
2022-10-06T22:02:20.663Z,55.50
2022-10-06T22:04:48.755Z,55.50
2022-10-06T22:07:16.805Z,56.70
2022-10-06T22:09:46.180Z,56.80
2022-10-06T22:12:14.273Z,56.80
2022-10-06T22:14:42.331Z,55.60
2022-10-06T22:17:10.388Z,56.10
2022-10-06T22:19:38.437Z,56.60
2022-10-06T22:22:06.430Z,57.30
2022-10-06T22:24:34.459Z,57.20
2022-10-06T22:27:03.862Z,56.90
2022-10-06T22:29:31.906Z,56.60
2022-10-06T22:32:00.619Z,56.10
2022-10-06T22:34:28.848Z,56.20
2022-10-06T22:36:56.921Z,55.70
2022-10-06T22:39:24.931Z,54.20
2022-10-06T22:41:53.039Z,55.10
2022-10-06T22:44:22.434Z,54.40
2022-10-06T22:46:50.536Z,56.10
2022-10-06T22:49:19.549Z,57.40
2022-10-06T22:51:47.570Z,56.80
2022-10-06T22:54:19.586Z,56.40
2022-10-06T22:56:47.576Z,57.00
2022-10-06T22:59:15.638Z,57.50
2022-10-06T23:01:45.171Z,57.10
2022-10-06T23:04:13.163Z,55.10
2022-10-06T23:06:41.337Z,54.80
2022-10-06T23:09:09.332Z,55.60
2022-10-06T23:11:37.370Z,56.50
2022-10-06T23:14:05.404Z,57.00
2022-10-06T23:16:33.427Z,57.00
2022-10-06T23:19:02.832Z,56.30
2022-10-06T23:21:32.333Z,56.00
2022-10-06T23:24:01.267Z,54.50
2022-10-06T23:26:29.740Z,55.50
2022-10-06T23:28:59.830Z,56.10
2022-10-06T23:31:28.592Z,56.10
2022-10-06T23:33:56.919Z,56.70
2022-10-06T23:36:26.393Z,57.00
2022-10-06T23:38:54.551Z,56.40
2022-10-06T23:41:22.840Z,53.40
2022-10-06T23:43:50.824Z,55.70
2022-10-06T23:46:20.345Z,55.80
2022-10-06T23:48:48.520Z,55.80
2022-10-06T23:51:16.832Z,55.00
2022-10-06T23:53:46.549Z,55.30
2022-10-06T23:56:15.018Z,55.70
2022-10-06T23:58:43.671Z,54.60
